createdAt,value
2023-01-15T00:00:33.713Z,74.98
2023-01-15T00:03:02.503Z,74.77
2023-01-15T00:05:37.555Z,74.49
2023-01-15T00:08:10.307Z,74.42
2023-01-15T00:10:42.230Z,74.33
2023-01-15T00:13:16.333Z,73.69
2023-01-15T00:15:52.805Z,74.17
2023-01-15T00:18:27.802Z,73.60
2023-01-15T00:21:03.302Z,73.61
2023-01-15T00:23:58.106Z,73.62
2023-01-15T00:26:52.190Z,73.53
2023-01-15T00:29:26.580Z,73.41
2023-01-15T00:32:04.870Z,74.16
2023-01-15T00:34:33.659Z,74.11
2023-01-15T00:37:03.613Z,73.49
2023-01-15T00:39:37.207Z,74.67
2023-01-15T00:42:07.945Z,74.47
2023-01-15T00:44:46.792Z,74.41
2023-01-15T00:47:16.100Z,74.71
2023-01-15T00:49:50.390Z,75.29
2023-01-15T00:52:19.756Z,75.23
2023-01-15T00:54:50.046Z,75.92
2023-01-15T00:57:21.571Z,75.21
2023-01-15T00:59:56.430Z,76.20
2023-01-15T01:02:27.957Z,76.45
2023-01-15T01:04:56.584Z,76.05
2023-01-15T01:07:28.219Z,77.14
2023-01-15T01:09:59.384Z,76.52
2023-01-15T01:12:31.173Z,77.34
2023-01-15T01:15:08.484Z,76.69
2023-01-15T01:17:49.335Z,77.19
2023-01-15T01:20:30.078Z,78.35
2023-01-15T01:23:01.915Z,77.98
2023-01-15T01:25:33.922Z,77.82
2023-01-15T01:28:07.936Z,77.97
2023-01-15T01:30:42.744Z,78.44
2023-01-15T01:33:16.744Z,78.83
2023-01-15T01:35:49.893Z,79.13
2023-01-15T01:38:20.236Z,79.34
2023-01-15T01:40:53.942Z,79.15
2023-01-15T01:43:24.668Z,79.67
2023-01-15T01:46:06.057Z,79.45
2023-01-15T01:48:43.467Z,78.77
2023-01-15T01:51:20.933Z,79.25
2023-01-15T01:53:57.668Z,78.92
2023-01-15T01:56:27.215Z,79.48
2023-01-15T01:58:58.926Z,79.66
2023-01-15T02:01:30.135Z,80.17
2023-01-15T02:04:00.257Z,79.82
2023-01-15T02:06:33.297Z,80.10
2023-01-15T02:09:08.968Z,80.52
2023-01-15T02:11:38.590Z,80.93
2023-01-15T02:14:12.505Z,80.99
2023-01-15T02:17:00.870Z,81.00
2023-01-15T02:19:40.718Z,80.87
2023-01-15T02:22:17.964Z,81.66
2023-01-15T02:24:59.280Z,80.82
2023-01-15T02:27:31.400Z,82.70
2023-01-15T02:30:07.076Z,82.44
2023-01-15T02:32:48.039Z,83.01
2023-01-15T02:35:32.177Z,82.80
2023-01-15T02:38:07.531Z,83.67
2023-01-15T02:40:40.997Z,83.26
2023-01-15T02:43:16.599Z,83.00
2023-01-15T02:46:00.137Z,82.96
2023-01-15T02:48:34.448Z,81.86
2023-01-15T02:51:10.057Z,82.61
2023-01-15T02:53:45.213Z,83.14
2023-01-15T02:56:22.007Z,83.50
2023-01-15T02:58:59.338Z,83.21
2023-01-15T03:01:35.432Z,82.81
2023-01-15T03:04:12.709Z,83.08
2023-01-15T03:06:48.583Z,83.50
2023-01-15T03:12:11.779Z,83.25
2023-01-15T03:14:58.216Z,83.18
2023-01-15T03:17:31.516Z,83.93
2023-01-15T03:20:09.545Z,84.32
2023-01-15T03:22:44.151Z,85.07
2023-01-15T03:25:23.156Z,84.18
2023-01-15T03:28:05.632Z,84.08
2023-01-15T03:30:48.105Z,84.62
2023-01-15T03:33:19.326Z,84.13
2023-01-15T03:36:01.407Z,84.66
2023-01-15T03:38:40.105Z,83.07
2023-01-15T03:41:21.690Z,84.31
2023-01-15T03:44:11.268Z,85.32
2023-01-15T03:47:04.405Z,84.91
2023-01-15T03:49:44.732Z,84.88
2023-01-15T03:52:48.265Z,85.10
2023-01-15T03:55:22.581Z,84.98
2023-01-15T03:58:15.630Z,84.97
2023-01-15T04:00:53.828Z,84.78
2023-01-15T04:03:31.258Z,84.94
2023-01-15T04:06:02.412Z,84.80
2023-01-15T04:08:36.165Z,84.78
2023-01-15T04:11:07.115Z,84.34
2023-01-15T04:13:44.017Z,84.66
2023-01-15T04:16:27.209Z,84.38
2023-01-15T04:19:04.774Z,86.12
2023-01-15T04:21:38.374Z,86.15
2023-01-15T04:24:09.505Z,86.23
2023-01-15T04:26:39.948Z,86.29
2023-01-15T04:29:20.369Z,85.59
2023-01-15T04:31:52.709Z,85.21
2023-01-15T04:34:30.236Z,86.07
2023-01-15T04:37:02.102Z,85.33
2023-01-15T04:39:31.143Z,84.92
2023-01-15T04:42:18.969Z,84.71
2023-01-15T04:44:50.496Z,85.12
2023-01-15T04:47:22.205Z,84.38
2023-01-15T04:49:57.763Z,84.74
2023-01-15T04:52:32.284Z,84.75
2023-01-15T04:55:03.307Z,84.86
2023-01-15T04:57:40.475Z,84.77
2023-01-15T05:00:19.910Z,84.84
2023-01-15T05:02:49.450Z,84.29
2023-01-15T05:05:25.291Z,84.07
2023-01-15T05:07:57.256Z,84.81
2023-01-15T05:10:28.469Z,84.80
2023-01-15T05:12:57.812Z,83.87
2023-01-15T05:15:31.639Z,84.46
2023-01-15T05:18:01.084Z,84.78
2023-01-15T05:20:36.327Z,83.53
2023-01-15T05:23:05.567Z,83.45
2023-01-15T05:25:38.644Z,84.02
2023-01-15T05:28:08.032Z,84.86
2023-01-15T05:30:39.270Z,83.68
2023-01-15T05:33:11.580Z,84.28
2023-01-15T05:35:45.667Z,84.59
2023-01-15T05:38:15.870Z,83.91
2023-01-15T05:40:45.907Z,83.62
2023-01-15T05:43:24.042Z,83.58
2023-01-15T05:45:53.820Z,83.07
2023-01-15T05:48:27.850Z,82.88
2023-01-15T05:51:11.662Z,83.26
2023-01-15T05:53:42.725Z,83.86
2023-01-15T05:56:19.952Z,83.35
2023-01-15T05:58:50.417Z,83.27
2023-01-15T06:01:22.474Z,83.13
2023-01-15T06:03:54.140Z,83.25
2023-01-15T06:06:42.207Z,83.19
2023-01-15T06:09:18.892Z,82.93
2023-01-15T06:11:50.519Z,83.88
2023-01-15T06:14:19.405Z,83.38
2023-01-15T06:16:51.478Z,83.99
2023-01-15T06:19:22.010Z,84.27
2023-01-15T06:21:52.608Z,84.21
2023-01-15T06:24:25.007Z,84.16
2023-01-15T06:26:53.995Z,83.22
2023-01-15T06:29:23.298Z,82.84
2023-01-15T06:32:01.830Z,82.88
2023-01-15T06:34:33.691Z,83.77
2023-01-15T06:37:04.769Z,82.51
2023-01-15T06:39:42.052Z,82.26
2023-01-15T06:42:28.303Z,83.04
2023-01-15T06:45:17.815Z,82.51
2023-01-15T06:47:56.259Z,82.74
2023-01-15T06:50:26.000Z,81.89
2023-01-15T06:52:58.978Z,82.44
2023-01-15T06:55:32.432Z,82.84
2023-01-15T06:58:04.195Z,81.88
2023-01-15T07:00:37.755Z,82.75
2023-01-15T07:03:07.682Z,81.97
2023-01-15T07:05:37.300Z,81.97
2023-01-15T07:08:09.582Z,82.66
2023-01-15T07:10:41.465Z,81.61
2023-01-15T07:13:16.000Z,82.38
2023-01-15T07:15:47.635Z,82.50
2023-01-15T07:18:19.353Z,82.80
2023-01-15T07:20:55.920Z,84.30
2023-01-15T07:23:36.963Z,83.87
2023-01-15T07:26:09.135Z,84.51
2023-01-15T07:28:43.117Z,85.79
2023-01-15T07:31:13.032Z,87.16
2023-01-15T07:33:50.612Z,87.76
2023-01-15T07:36:22.481Z,88.46
2023-01-15T07:39:08.066Z,87.75
2023-01-15T07:41:56.667Z,89.60
2023-01-15T07:44:45.948Z,91.46
2023-01-15T07:47:39.394Z,90.93
2023-01-15T07:50:11.723Z,91.81
2023-01-15T07:52:45.620Z,91.96
2023-01-15T07:55:27.013Z,91.80
2023-01-15T07:57:56.370Z,92.46
2023-01-15T08:00:38.190Z,93.89
2023-01-15T08:03:09.651Z,93.53
2023-01-15T08:05:40.683Z,92.40
2023-01-15T08:08:19.376Z,93.61
2023-01-15T08:11:09.928Z,93.08
2023-01-15T08:13:58.460Z,92.57
2023-01-15T08:16:27.324Z,92.76
2023-01-15T08:18:56.969Z,93.54
2023-01-15T08:21:27.378Z,92.71
2023-01-15T08:23:59.011Z,93.19
2023-01-15T08:26:32.093Z,93.64
2023-01-15T08:29:05.819Z,94.51
2023-01-15T08:31:37.766Z,93.81
2023-01-15T08:34:15.922Z,93.33
2023-01-15T08:36:44.340Z,94.92
2023-01-15T08:39:24.785Z,95.74
2023-01-15T08:41:56.630Z,95.03
2023-01-15T08:44:27.420Z,95.70
2023-01-15T08:47:05.757Z,96.09
2023-01-15T08:49:36.238Z,95.25
2023-01-15T08:52:08.008Z,95.95
2023-01-15T08:54:41.993Z,94.72
2023-01-15T08:57:26.286Z,94.91
2023-01-15T08:59:57.536Z,95.65
2023-01-15T09:02:38.423Z,95.43
2023-01-15T09:05:07.852Z,96.20
2023-01-15T09:07:40.017Z,95.14
2023-01-15T09:10:10.507Z,95.25
2023-01-15T09:12:43.274Z,95.08
2023-01-15T09:15:12.870Z,94.96
2023-01-15T09:17:54.830Z,95.29
2023-01-15T09:20:27.443Z,94.99
2023-01-15T09:22:56.207Z,94.90
2023-01-15T09:25:32.799Z,93.52
2023-01-15T09:28:05.266Z,94.53
2023-01-15T09:30:42.089Z,94.29
2023-01-15T09:33:12.615Z,94.09
2023-01-15T09:35:49.665Z,95.18
2023-01-15T09:38:24.807Z,95.44
2023-01-15T09:41:03.534Z,95.59
2023-01-15T09:43:51.194Z,95.37
2023-01-15T09:46:23.206Z,95.45
2023-01-15T09:49:04.549Z,96.06
2023-01-15T09:51:38.878Z,96.51
2023-01-15T09:54:26.702Z,99.00
2023-01-15T09:56:58.583Z,98.71
2023-01-15T09:59:34.969Z,97.63
2023-01-15T10:02:18.943Z,98.97
2023-01-15T10:04:57.500Z,97.89
2023-01-15T10:07:38.154Z,98.17
2023-01-15T10:10:18.077Z,98.09
2023-01-15T10:12:48.881Z,98.63
2023-01-15T10:15:44.168Z,99.18
2023-01-15T10:18:16.934Z,99.05
2023-01-15T10:21:08.984Z,99.33
2023-01-15T10:23:46.593Z,99.09
2023-01-15T10:26:20.344Z,99.49
2023-01-15T10:29:07.260Z,99.77
2023-01-15T10:31:55.055Z,100.00
2023-01-15T10:34:58.980Z,99.20
2023-01-15T10:37:34.885Z,99.50
2023-01-15T10:40:21.434Z,98.97
2023-01-15T10:43:01.177Z,99.41
2023-01-15T10:45:34.141Z,97.99
2023-01-15T10:48:10.224Z,97.07
2023-01-15T10:50:40.589Z,96.89
2023-01-15T10:53:17.787Z,97.02
2023-01-15T10:55:51.426Z,95.85
2023-01-15T10:58:29.068Z,94.17
2023-01-15T11:01:05.907Z,94.82
2023-01-15T11:03:38.599Z,93.87
2023-01-15T11:06:16.790Z,93.43
2023-01-15T11:12:04.659Z,95.06
2023-01-15T11:14:55.315Z,95.36
2023-01-15T11:17:44.659Z,95.39
2023-01-15T11:20:28.703Z,95.73
2023-01-15T11:23:06.086Z,94.38
2023-01-15T11:25:36.840Z,93.40
2023-01-15T11:28:09.936Z,92.74
2023-01-15T11:30:42.349Z,93.40
2023-01-15T11:33:29.006Z,93.47
2023-01-15T11:36:02.286Z,92.94
2023-01-15T11:38:35.849Z,94.10
2023-01-15T11:41:06.495Z,94.82
2023-01-15T11:43:54.650Z,96.46
2023-01-15T11:46:48.102Z,96.41
2023-01-15T11:49:37.664Z,95.98
2023-01-15T11:52:17.939Z,95.74
2023-01-15T11:54:51.181Z,96.68
2023-01-15T11:57:32.930Z,96.31
2023-01-15T12:00:06.153Z,97.21
2023-01-15T12:02:41.847Z,97.34
2023-01-15T12:05:22.385Z,97.40
2023-01-15T12:07:56.873Z,97.56
2023-01-15T12:10:54.900Z,98.79
2023-01-15T12:13:32.877Z,97.87
2023-01-15T12:16:06.745Z,99.02
2023-01-15T12:18:59.034Z,99.69
2023-01-15T12:22:06.445Z,100.00
2023-01-15T12:25:37.153Z,100.00
2023-01-15T12:28:13.351Z,100.00
2023-01-15T12:30:56.282Z,100.00
2023-01-15T12:33:38.656Z,100.00
2023-01-15T12:36:15.979Z,100.00
2023-01-15T12:38:54.939Z,100.00
2023-01-15T12:41:56.164Z,100.00
2023-01-15T12:44:50.509Z,100.00
2023-01-15T12:47:23.908Z,100.00
2023-01-15T12:49:59.247Z,100.00
2023-01-15T12:52:32.393Z,100.00
2023-01-15T12:55:08.449Z,100.00
2023-01-15T12:57:44.049Z,100.00
2023-01-15T13:00:19.267Z,100.00
2023-01-15T13:03:12.122Z,100.00
2023-01-15T13:05:54.114Z,100.00
2023-01-15T13:08:26.688Z,100.00
2023-01-15T13:11:02.153Z,100.00
2023-01-15T13:13:42.425Z,100.00
2023-01-15T13:16:26.366Z,100.00
2023-01-15T13:19:07.983Z,100.00
2023-01-15T13:21:38.319Z,100.00
2023-01-15T13:24:35.047Z,100.00
2023-01-15T13:27:25.068Z,100.00
2023-01-15T13:30:20.453Z,100.00
2023-01-15T13:32:52.635Z,100.00
2023-01-15T13:35:30.765Z,100.00
2023-01-15T13:38:03.092Z,100.00
2023-01-15T13:40:36.404Z,100.00
2023-01-15T13:43:10.198Z,100.00
2023-01-15T13:45:52.404Z,100.00
2023-01-15T13:48:33.631Z,100.00
2023-01-15T13:51:05.983Z,100.00
2023-01-15T13:53:38.338Z,100.00
2023-01-15T13:56:10.520Z,100.00
2023-01-15T13:58:51.456Z,100.00
2023-01-15T14:01:27.612Z,100.00
2023-01-15T14:04:05.666Z,100.00
2023-01-15T14:06:47.463Z,100.00
2023-01-15T14:09:32.352Z,100.00
2023-01-15T14:12:24.485Z,100.00
2023-01-15T14:15:29.572Z,100.00
2023-01-15T14:18:22.522Z,100.00
2023-01-15T14:21:18.482Z,100.00
2023-01-15T14:24:10.465Z,100.00
2023-01-15T14:26:46.657Z,100.00
2023-01-15T14:29:54.205Z,100.00
2023-01-15T14:32:31.567Z,100.00
2023-01-15T14:35:18.580Z,100.00
2023-01-15T14:37:58.628Z,100.00
2023-01-15T14:40:32.469Z,100.00
2023-01-15T14:43:11.491Z,100.00
2023-01-15T14:45:43.529Z,100.00
2023-01-15T14:48:21.939Z,100.00
2023-01-15T14:50:54.589Z,100.00
2023-01-15T14:53:31.692Z,100.00
2023-01-15T14:56:14.174Z,100.00
2023-01-15T14:58:51.672Z,100.00
2023-01-15T15:01:46.207Z,100.00
2023-01-15T15:04:39.704Z,100.00
2023-01-15T15:07:15.462Z,100.00
2023-01-15T15:09:57.020Z,100.00
2023-01-15T15:12:44.747Z,100.00
2023-01-15T15:15:22.241Z,100.00
2023-01-15T15:18:07.203Z,100.00
2023-01-15T15:21:06.141Z,100.00
2023-01-15T15:23:43.516Z,100.00
2023-01-15T15:26:22.775Z,100.00
2023-01-15T15:29:02.256Z,100.00
2023-01-15T15:31:37.527Z,100.00
2023-01-15T15:34:19.955Z,100.00
2023-01-15T15:36:51.221Z,100.00
2023-01-15T15:39:26.489Z,100.00
2023-01-15T15:42:23.298Z,100.00
2023-01-15T15:45:12.025Z,100.00
2023-01-15T15:48:03.311Z,100.00
2023-01-15T15:50:38.242Z,100.00
2023-01-15T15:53:22.916Z,100.00
2023-01-15T15:55:55.395Z,100.00
2023-01-15T15:58:42.429Z,100.00
2023-01-15T16:01:13.112Z,100.00
2023-01-15T16:04:26.153Z,100.00
2023-01-15T16:06:56.213Z,100.00
2023-01-15T16:09:29.040Z,100.00
2023-01-15T16:12:11.406Z,100.00
2023-01-15T16:14:42.143Z,100.00
2023-01-15T16:17:21.826Z,100.00
2023-01-15T16:19:52.257Z,100.00
2023-01-15T16:22:32.862Z,100.00
2023-01-15T16:25:07.046Z,100.00
2023-01-15T16:27:38.619Z,100.00
2023-01-15T16:30:24.540Z,100.00
2023-01-15T16:33:03.643Z,100.00
2023-01-15T16:35:37.588Z,100.00
2023-01-15T16:38:13.443Z,100.00
2023-01-15T16:40:52.799Z,100.00
2023-01-15T16:43:30.106Z,100.00
2023-01-15T16:46:08.513Z,100.00
2023-01-15T16:48:47.468Z,100.00
2023-01-15T16:51:33.760Z,99.79
2023-01-15T16:54:07.956Z,99.55
2023-01-15T16:56:59.910Z,99.31
2023-01-15T17:00:06.037Z,99.48
2023-01-15T17:02:48.757Z,99.15
2023-01-15T17:05:28.533Z,98.41
2023-01-15T17:08:00.645Z,99.48
2023-01-15T17:10:39.286Z,98.62
2023-01-15T17:13:25.462Z,98.59
2023-01-15T17:16:24.816Z,97.28
2023-01-15T17:18:57.500Z,97.25
2023-01-15T17:21:29.991Z,96.10
2023-01-15T17:24:07.071Z,95.35
2023-01-15T17:26:47.522Z,94.28
2023-01-15T17:29:23.213Z,93.48
2023-01-15T17:32:07.913Z,93.84
2023-01-15T17:34:37.151Z,94.74
2023-01-15T17:37:11.843Z,93.04
2023-01-15T17:39:50.279Z,94.31
2023-01-15T17:42:35.869Z,94.06
2023-01-15T17:45:14.562Z,92.76
2023-01-15T17:47:50.082Z,92.64
2023-01-15T17:50:23.356Z,91.56
2023-01-15T17:53:01.803Z,91.61
2023-01-15T17:55:50.511Z,92.05
2023-01-15T17:58:44.900Z,91.85
2023-01-15T18:01:42.921Z,91.54
2023-01-15T18:04:47.425Z,92.33
2023-01-15T18:07:28.759Z,91.34
2023-01-15T18:10:04.584Z,92.08
2023-01-15T18:12:36.551Z,92.11
2023-01-15T18:15:21.227Z,91.57
2023-01-15T18:17:59.701Z,91.91
2023-01-15T18:20:36.280Z,91.94
2023-01-15T18:23:11.103Z,91.03
2023-01-15T18:25:50.182Z,90.76
2023-01-15T18:28:27.419Z,91.04
2023-01-15T18:31:08.192Z,90.66
2023-01-15T18:33:39.773Z,89.74
2023-01-15T18:36:25.403Z,89.08
2023-01-15T18:38:56.231Z,89.03
2023-01-15T18:41:59.514Z,88.96
2023-01-15T18:44:52.483Z,90.26
2023-01-15T18:47:28.247Z,90.32
2023-01-15T18:49:59.742Z,89.39
2023-01-15T18:52:49.075Z,90.30
2023-01-15T18:55:24.697Z,90.86
2023-01-15T18:57:56.235Z,89.90
2023-01-15T19:00:35.553Z,89.98
2023-01-15T19:03:12.682Z,89.50
2023-01-15T19:05:48.855Z,89.15
2023-01-15T19:08:25.736Z,89.71
2023-01-15T19:11:06.072Z,89.76
2023-01-15T19:13:38.541Z,88.96
2023-01-15T19:16:30.178Z,89.79
2023-01-15T19:19:06.109Z,89.50
2023-01-15T19:21:38.396Z,88.13
2023-01-15T19:24:21.652Z,88.08
2023-01-15T19:26:56.418Z,89.58
2023-01-15T19:29:32.050Z,88.19
2023-01-15T19:32:11.989Z,88.87
2023-01-15T19:34:42.887Z,89.12
2023-01-15T19:37:22.255Z,89.25
2023-01-15T19:39:54.043Z,88.12
2023-01-15T19:42:43.113Z,88.76
2023-01-15T19:45:31.590Z,88.94
2023-01-15T19:48:23.778Z,89.31
2023-01-15T19:50:55.962Z,88.79
2023-01-15T19:53:39.090Z,90.19
2023-01-15T19:56:22.922Z,90.05
2023-01-15T19:59:00.999Z,89.28
2023-01-15T20:01:41.781Z,89.95
2023-01-15T20:04:24.515Z,90.08
2023-01-15T20:07:05.268Z,89.64
2023-01-15T20:09:40.822Z,89.21
2023-01-15T20:12:31.797Z,89.22
2023-01-15T20:15:09.132Z,87.39
2023-01-15T20:17:45.689Z,88.06
2023-01-15T20:20:22.998Z,88.39
2023-01-15T20:23:08.592Z,87.35
2023-01-15T20:25:52.244Z,86.84
2023-01-15T20:28:33.498Z,87.33
2023-01-15T20:31:30.577Z,87.85
2023-01-15T20:34:04.533Z,88.04
2023-01-15T20:36:41.111Z,87.44
2023-01-15T20:39:37.956Z,86.85
2023-01-15T20:42:25.735Z,86.26
2023-01-15T20:45:12.496Z,86.00
2023-01-15T20:48:02.670Z,86.38
2023-01-15T20:50:44.942Z,85.94
2023-01-15T20:53:25.478Z,85.13
2023-01-15T20:56:00.198Z,85.49
2023-01-15T20:58:41.575Z,85.32
2023-01-15T21:01:13.370Z,84.72
2023-01-15T21:03:43.551Z,84.16
2023-01-15T21:06:24.669Z,84.47
2023-01-15T21:09:03.504Z,84.45
2023-01-15T21:11:40.915Z,84.17
2023-01-15T21:14:10.199Z,83.51
2023-01-15T21:16:55.285Z,83.52
2023-01-15T21:19:26.689Z,83.26
2023-01-15T21:21:57.363Z,83.85
2023-01-15T21:24:30.351Z,84.04
2023-01-15T21:26:59.622Z,85.79
2023-01-15T21:29:31.524Z,86.85
2023-01-15T21:32:04.220Z,87.31
2023-01-15T21:34:34.809Z,87.27
2023-01-15T21:37:05.816Z,88.41
2023-01-15T21:39:37.913Z,88.67
2023-01-15T21:42:25.371Z,89.85
2023-01-15T21:44:56.115Z,89.27
2023-01-15T21:47:31.486Z,89.30
2023-01-15T21:50:08.768Z,89.44
2023-01-15T21:52:37.226Z,89.50
2023-01-15T21:55:08.621Z,89.29
2023-01-15T21:57:42.093Z,89.39
2023-01-15T22:00:21.393Z,89.18
2023-01-15T22:03:05.805Z,89.31
2023-01-15T22:05:34.383Z,88.80
2023-01-15T22:08:10.855Z,88.45
2023-01-15T22:10:42.654Z,88.38
2023-01-15T22:13:16.641Z,88.57
2023-01-15T22:15:47.762Z,86.73
2023-01-15T22:18:29.660Z,86.67
2023-01-15T22:21:04.142Z,86.67
2023-01-15T22:23:37.987Z,85.57
2023-01-15T22:26:09.040Z,85.16
2023-01-15T22:28:38.313Z,84.87
2023-01-15T22:31:14.977Z,85.99
2023-01-15T22:33:57.063Z,85.00
2023-01-15T22:36:28.061Z,83.44
2023-01-15T22:38:56.292Z,82.88
2023-01-15T22:41:45.338Z,83.74
2023-01-15T22:44:22.775Z,83.43
2023-01-15T22:46:54.103Z,83.41
2023-01-15T22:49:37.211Z,83.27
2023-01-15T22:52:07.586Z,82.74
2023-01-15T22:54:41.801Z,82.20
2023-01-15T22:57:10.165Z,82.82
2023-01-15T22:59:46.559Z,84.08
2023-01-15T23:02:23.087Z,83.26
2023-01-15T23:05:04.061Z,83.77
2023-01-15T23:07:42.068Z,84.34
2023-01-15T23:10:20.250Z,83.65
2023-01-15T23:12:50.215Z,84.76
2023-01-15T23:15:27.619Z,84.30
2023-01-15T23:17:59.794Z,84.89
2023-01-15T23:20:37.757Z,84.04
2023-01-15T23:23:08.332Z,85.78
2023-01-15T23:25:40.083Z,84.90
2023-01-15T23:28:09.732Z,85.67
2023-01-15T23:30:39.652Z,85.64
2023-01-15T23:33:10.533Z,84.70
2023-01-15T23:35:42.641Z,85.13
2023-01-15T23:38:12.474Z,85.78
2023-01-15T23:40:53.140Z,85.15
2023-01-15T23:43:40.521Z,86.38
2023-01-15T23:46:37.569Z,86.19
2023-01-15T23:49:16.993Z,86.68
2023-01-15T23:52:00.824Z,85.65
2023-01-15T23:54:31.582Z,84.67
2023-01-15T23:57:12.437Z,83.51
2023-01-15T23:59:49.007Z,84.45
